Time;durP1;ratioP1;P1;durP2;ratioP2;P2;SDS_P1;SDS_P2;PMS_P1;PMS_P2;Temp;Humidity;BMP_temperature;BMP_pressure;BME280_temperature;BME280_humidity;BME280_pressure;Samples;Min_cycle;Max_cycle;Signal;HPM_P1;HPM_P2
2023/10/05 00:03:43;;;;;;;7.15;2.97;;;;;;;14.65;58.02;100155.44;4462979;32;33295;-86
2023/10/05 00:06:15;;;;;;;6.75;2.50;;;;;;;14.71;57.99;100157.25;4465496;32;33678;-86
2023/10/05 00:08:49;;;;;;;7.72;3.17;;;;;;;14.79;57.88;100155.59;4437311;32;33121;-86
2023/10/05 00:11:23;;;;;;;6.80;2.80;;;;;;;14.44;58.94;100158.63;4440072;32;32684;-86
2023/10/05 00:13:52;;;;;;;6.62;2.78;;;;;;;14.35;59.39;100163.72;4440847;32;33444;-86
2023/10/05 00:16:21;;;;;;;8.90;3.75;;;;;;;14.55;58.71;100167.50;4451319;32;33876;-86
2023/10/05 00:18:49;;;;;;;7.82;2.95;;;;;;;14.45;59.23;100160.38;4438471;32;34595;-87
2023/10/05 00:21:19;;;;;;;7.32;3.15;;;;;;;14.46;59.26;100172.56;4450807;32;34164;-87
2023/10/05 00:23:53;;;;;;;4.97;2.28;;;;;;;14.38;59.47;100168.97;4439711;32;33527;-87
2023/10/05 00:26:23;;;;;;;8.38;2.95;;;;;;;14.39;59.32;100160.28;4437725;32;33703;-88
2023/10/05 00:29:56;;;;;;;6.28;2.60;;;;;;;14.57;58.75;100159.69;4449058;32;34605;-87
2023/10/05 00:31:48;;;;;;;5.93;2.60;;;;;;;14.40;59.21;100164.66;4443063;32;33498;-87
2023/10/05 00:34:24;;;;;;;8.23;3.25;;;;;;;14.29;59.56;100158.44;4451810;32;32925;-86
2023/10/05 00:36:58;;;;;;;5.35;2.60;;;;;;;14.11;60.20;100164.25;4457845;32;33526;-86
2023/10/05 00:39:31;;;;;;;5.62;2.42;;;;;;;14.27;59.84;100157.53;4459235;32;34014;-86
2023/10/05 00:44:34;;;;;;;6.12;2.67;;;;;;;14.24;59.90;100157.47;4452274;32;33896;-85
2023/10/05 00:47:06;;;;;;;5.90;2.65;;;;;;;14.22;59.98;100156.59;4448197;32;34759;-85
2023/10/05 00:49:45;;;;;;;7.65;3.20;;;;;;;14.25;59.64;100156.63;4442509;32;34900;-86
2023/10/05 00:52:15;;;;;;;8.88;3.30;;;;;;;14.36;59.39;100149.84;4447966;32;34329;-87
2023/10/05 00:54:48;;;;;;;8.32;3.45;;;;;;;14.18;60.27;100153.06;4451766;32;33776;-86
2023/10/05 00:57:20;;;;;;;8.95;3.40;;;;;;;14.06;60.87;100152.91;4448389;32;33908;-87
2023/10/05 01:00:10;;;;;;;7.07;3.20;;;;;;;14.06;60.47;100152.91;4437396;32;33815;-85
2023/10/05 01:02:46;;;;;;;11.18;4.37;;;;;;;13.94;61.17;100151.00;4462438;32;32943;-87
2023/10/05 01:05:25;;;;;;;7.28;3.78;;;;;;;13.99;61.19;100146.72;4445999;32;33505;-87
2023/10/05 01:07:56;;;;;;;7.82;3.62;;;;;;;13.63;62.90;100155.69;4437052;32;32615;-88
2023/10/05 01:12:54;;;;;;;7.12;4.30;;;;;;;13.76;62.36;100142.88;4448322;32;34163;-88
2023/10/05 01:15:25;;;;;;;7.53;4.03;;;;;;;13.73;62.76;100140.22;4436848;32;33889;-87
2023/10/05 01:17:52;;;;;;;7.35;3.92;;;;;;;13.96;62.13;100132.75;4450507;32;34701;-87
2023/10/05 01:22:56;;;;;;;6.37;3.42;;;;;;;13.94;62.31;100134.44;4423287;32;33688;-87
2023/10/05 01:25:25;;;;;;;8.90;3.33;;;;;;;14.10;61.76;100136.44;4437833;32;34155;-87
2023/10/05 01:27:53;;;;;;;9.10;3.53;;;;;;;14.31;60.78;100141.06;4438093;32;34432;-87
2023/10/05 01:30:21;;;;;;;6.82;3.62;;;;;;;14.25;60.90;100136.66;4462406;32;33827;-89
2023/10/05 01:32:49;;;;;;;8.35;3.42;;;;;;;14.04;61.76;100126.78;4444987;32;34318;-87
2023/10/05 01:35:18;;;;;;;6.53;3.50;;;;;;;14.12;61.57;100135.59;4450193;32;33036;-87
2023/10/05 01:37:46;;;;;;;13.93;3.92;;;;;;;14.31;60.79;100130.62;4447732;32;33555;-87
2023/10/05 01:42:47;;;;;;;7.25;3.35;;;;;;;14.50;60.14;100122.19;4458743;32;33949;-87
2023/10/05 01:45:19;;;;;;;8.38;3.42;;;;;;;14.48;59.97;100123.91;4441020;32;34014;-85
2023/10/05 01:47:48;;;;;;;8.00;4.05;;;;;;;14.64;59.40;100121.50;4440712;32;33590;-86
2023/10/05 01:50:22;;;;;;;5.72;2.97;;;;;;;14.35;60.34;100117.63;4452555;32;33438;-88
2023/10/05 01:52:57;;;;;;;6.45;2.80;;;;;;;14.73;59.29;100114.63;4461251;32;34539;-86
2023/10/05 01:55:30;;;;;;;6.53;2.90;;;;;;;14.59;59.70;100118.84;4454100;32;33464;-86
2023/10/05 01:57:58;;;;;;;7.75;2.80;;;;;;;14.57;59.69;100110.97;4467469;32;33605;-87
2023/10/05 02:00:26;;;;;;;7.45;3.25;;;;;;;14.56;60.00;100117.06;4464564;32;34901;-88
2023/10/05 02:02:55;;;;;;;6.43;2.65;;;;;;;14.51;60.00;100113.53;4451486;32;34000;-87
2023/10/05 02:05:23;;;;;;;6.55;2.85;;;;;;;14.34;60.61;100115.00;4451859;32;33281;-87
2023/10/05 02:07:51;;;;;;;7.03;3.17;;;;;;;14.41;60.25;100119.44;4451037;32;33919;-87
2023/10/05 02:10:22;;;;;;;7.68;3.10;;;;;;;14.45;59.99;100108.19;4455890;32;34783;-87
2023/10/05 02:12:54;;;;;;;7.00;2.75;;;;;;;14.45;60.00;100110.81;4455388;32;33597;-87
2023/10/05 02:15:28;;;;;;;5.85;2.70;;;;;;;14.36;60.19;100100.28;4454011;32;34420;-87
2023/10/05 02:18:13;;;;;;;6.68;3.12;;;;;;;14.37;59.81;100102.00;4457860;32;34330;-87
2023/10/05 02:20:44;;;;;;;5.87;2.70;;;;;;;14.32;59.99;100090.66;4440040;32;33739;-88
2023/10/05 02:23:25;;;;;;;5.97;2.55;;;;;;;14.34;59.86;100095.00;4459477;32;34163;-87
2023/10/05 02:25:57;;;;;;;6.22;2.65;;;;;;;14.31;59.77;100086.28;4467114;32;33087;-86
2023/10/05 02:28:33;;;;;;;6.82;2.65;;;;;;;14.07;60.17;100079.03;4452477;32;34874;-87
2023/10/05 02:31:01;;;;;;;6.55;2.50;;;;;;;14.20;59.69;100091.34;4440037;32;34968;-88
2023/10/05 02:33:31;;;;;;;8.38;2.62;;;;;;;14.12;59.82;100088.63;4439987;32;33930;-88
2023/10/05 02:36:11;;;;;;;6.53;2.72;;;;;;;14.19;59.72;100083.53;4462024;32;33375;-87
2023/10/05 02:38:48;;;;;;;5.68;2.35;;;;;;;14.24;59.39;100084.44;4447891;32;33752;-87
2023/10/05 02:41:20;;;;;;;6.60;2.60;;;;;;;14.15;59.60;100086.94;4451031;32;33438;-87
2023/10/05 02:43:52;;;;;;;7.47;3.15;;;;;;;14.16;59.38;100086.94;4438406;32;33736;-87
2023/10/05 02:46:24;;;;;;;7.03;2.75;;;;;;;14.17;59.30;100080.00;4452160;32;32698;-87
2023/10/05 02:48:52;;;;;;;7.47;2.78;;;;;;;14.22;59.05;100086.19;4448533;32;34479;-87
2023/10/05 02:51:20;;;;;;;8.20;2.58;;;;;;;14.12;58.94;100088.63;4452004;32;33750;-86
2023/10/05 02:53:55;;;;;;;4.45;2.15;;;;;;;14.01;59.35;100079.81;4452216;32;34847;-87
2023/10/05 02:56:29;;;;;;;6.60;2.80;;;;;;;13.94;59.85;100080.59;4452023;32;33935;-86
2023/10/05 02:59:02;;;;;;;8.55;2.92;;;;;;;14.04;59.61;100086.78;4451873;32;34694;-87
2023/10/05 03:01:33;;;;;;;6.35;2.67;;;;;;;14.05;59.38;100089.44;4452660;32;33143;-91
2023/10/05 03:04:21;;;;;;;6.87;2.85;;;;;;;14.00;59.86;100087.63;4449670;32;34165;-87
2023/10/05 03:06:52;;;;;;;6.18;2.53;;;;;;;13.89;59.96;100097.87;4460126;32;34725;-87
2023/10/05 03:09:21;;;;;;;5.68;2.72;;;;;;;13.90;59.99;100097.03;4451786;32;34628;-87
2023/10/05 03:11:49;;;;;;;6.53;2.90;;;;;;;13.85;60.14;100090.88;4456820;32;34852;-89
2023/10/05 03:14:17;;;;;;;5.53;2.78;;;;;;;13.87;60.23;100083.97;4456764;32;33616;-86
2023/10/05 03:16:48;;;;;;;7.55;2.80;;;;;;;13.87;60.13;100084.84;4438050;32;33859;-87
2023/10/05 03:19:20;;;;;;;7.22;2.80;;;;;;;13.84;60.21;100091.75;4464083;32;33624;-87
2023/10/05 03:21:57;;;;;;;5.90;2.40;;;;;;;13.69;60.71;100081.09;4443011;32;34872;-87
2023/10/05 03:24:25;;;;;;;6.43;2.35;;;;;;;13.76;60.57;100085.56;4440872;32;34700;-87
2023/10/05 03:26:54;;;;;;;6.18;2.60;;;;;;;13.74;60.68;100088.13;4461718;32;34255;-87
2023/10/05 03:29:22;;;;;;;7.12;3.08;;;;;;;13.76;60.67;100085.56;4466976;32;34739;-87
2023/10/05 03:31:53;;;;;;;5.43;2.47;;;;;;;13.37;61.64;100089.28;4466848;32;33832;-87
2023/10/05 03:34:26;;;;;;;5.93;2.62;;;;;;;13.64;60.80;100094.06;4461967;32;33915;-87
2023/10/05 03:36:55;;;;;;;5.15;2.40;;;;;;;13.64;60.54;100096.66;4459053;32;33441;-87
2023/10/05 03:39:25;;;;;;;6.47;2.62;;;;;;;13.72;59.93;100091.56;4463833;32;33561;-87
2023/10/05 03:41:52;;;;;;;7.35;2.72;;;;;;;13.27;61.46;100100.41;4456937;32;33928;-87
2023/10/05 03:44:21;;;;;;;5.03;2.60;;;;;;;13.42;61.13;100105.00;4450575;32;34235;-87
2023/10/05 03:46:49;;;;;;;5.72;2.80;;;;;;;13.45;60.65;100108.53;4455711;32;34429;-87
2023/10/05 03:49:21;;;;;;;5.95;2.67;;;;;;;13.43;60.76;100109.34;4452290;32;34039;-87
2023/10/05 03:51:50;;;;;;;5.95;2.80;;;;;;;13.30;61.14;100111.75;4443839;32;34079;-88
2023/10/05 03:54:19;;;;;;;4.68;2.28;;;;;;;13.32;60.93;100107.44;4457219;32;33585;-86
2023/10/05 03:56:50;;;;;;;7.95;2.70;;;;;;;13.38;60.68;100097.13;4444608;32;33218;-88
2023/10/05 03:59:18;;;;;;;5.47;2.55;;;;;;;13.45;59.82;100087.69;4437635;32;33471;-88
2023/10/05 04:01:49;;;;;;;6.45;2.53;;;;;;;13.56;59.60;100088.75;4454418;32;34099;-87
2023/10/05 04:04:21;;;;;;;7.65;2.72;;;;;;;13.33;60.13;100082.25;4451118;32;33728;-88
2023/10/05 04:06:51;;;;;;;9.98;3.00;;;;;;;13.34;59.99;100086.66;4441165;32;33726;-87
2023/10/05 04:09:19;;;;;;;6.80;2.85;;;;;;;13.24;59.93;100090.81;4453927;32;33423;-91
2023/10/05 04:11:48;;;;;;;7.00;2.72;;;;;;;13.38;59.55;100091.91;4455321;32;34655;-88
2023/10/05 04:14:15;;;;;;;4.50;1.70;;;;;;;13.36;59.36;100095.34;4458273;32;34544;-86
2023/10/05 04:16:43;;;;;;;6.35;2.50;;;;;;;13.29;59.36;100096.97;4437620;32;32410;-87
2023/10/05 04:19:11;;;;;;;5.97;2.15;;;;;;;12.87;60.50;100110.06;4450985;32;34338;-87
2023/10/05 04:21:40;;;;;;;7.85;2.30;;;;;;;13.01;60.23;100105.13;4457952;32;34933;-86
2023/10/05 04:24:09;;;;;;;5.97;2.28;;;;;;;13.14;59.96;100108.00;4462812;32;34451;-85
2023/10/05 04:26:44;;;;;;;6.30;2.12;;;;;;;13.12;59.68;100114.87;4444754;32;33204;-87
2023/10/05 04:29:14;;;;;;;7.50;2.20;;;;;;;13.07;59.97;100115.66;4448692;32;33835;-87
2023/10/05 04:31:48;;;;;;;5.00;2.10;;;;;;;13.28;59.03;100109.97;4455553;32;33926;-87
2023/10/05 04:34:19;;;;;;;7.57;2.20;;;;;;;13.20;59.37;100106.31;4452567;32;33999;-87
2023/10/05 04:36:54;;;;;;;5.55;2.05;;;;;;;13.21;59.51;100110.69;4461600;32;33214;-89
2023/10/05 04:39:26;;;;;;;5.20;2.10;;;;;;;13.06;59.80;100114.75;4461946;32;33488;-89
2023/10/05 04:41:55;;;;;;;5.93;2.30;;;;;;;13.13;59.61;100121.84;4447046;32;34136;-87
2023/10/05 04:44:23;;;;;;;5.25;2.08;;;;;;;13.17;59.47;100116.69;4461408;32;34487;-87
2023/10/05 04:46:51;;;;;;;5.78;2.15;;;;;;;13.06;59.84;100127.78;4459267;32;33467;-85
2023/10/05 04:49:20;;;;;;;4.65;2.20;;;;;;;13.14;59.54;100127.91;4455987;32;33676;-85
2023/10/05 04:51:48;;;;;;;6.12;2.25;;;;;;;13.14;59.53;100125.31;4446209;32;33683;-86
2023/10/05 04:54:18;;;;;;;9.43;2.40;;;;;;;13.12;59.74;100133.09;4468070;32;33550;-85
2023/10/05 05:02:20;;;;;;;5.85;2.42;;;;;;;13.14;59.45;100134.03;4448350;32;34131;-86
2023/10/05 05:07:21;;;;;;;6.07;2.15;;;;;;;13.02;60.12;100136.38;4453112;32;33323;-87
2023/10/05 05:09:50;;;;;;;6.10;2.67;;;;;;;13.03;60.21;100132.03;4455043;32;33655;-86
2023/10/05 05:12:20;;;;;;;7.62;2.50;;;;;;;12.98;60.52;100131.97;4451879;32;33860;-86
2023/10/05 05:14:53;;;;;;;190.32;19.65;;;;;;;13.02;60.51;100138.13;4442904;32;33909;-87
2023/10/05 05:17:23;;;;;;;6.18;1.83;;;;;;;13.08;60.18;100139.09;4452323;32;33373;-86
2023/10/05 05:19:56;;;;;;;7.65;2.08;;;;;;;13.10;60.03;100147.81;4452784;32;33721;-86
2023/10/05 05:22:24;;;;;;;5.75;2.47;;;;;;;12.96;60.45;100149.31;4456851;32;33793;-89
2023/10/05 05:24:51;;;;;;;4.18;1.83;;;;;;;13.10;60.01;100150.41;4443322;32;34784;-90
2023/10/05 05:29:53;;;;;;;5.00;1.98;;;;;;;13.21;59.53;100139.31;4453492;32;33872;-86
2023/10/05 05:32:22;;;;;;;5.37;2.12;;;;;;;13.19;59.33;100141.03;4452678;32;33933;-85
2023/10/05 05:34:50;;;;;;;4.87;1.95;;;;;;;13.13;59.38;100141.78;4468151;32;33872;-85
2023/10/05 05:37:27;;;;;;;5.18;1.80;;;;;;;13.05;59.56;100149.47;4449249;32;33093;-86
2023/10/05 05:39:55;;;;;;;5.53;2.00;;;;;;;12.97;60.06;100161.47;4439571;32;33943;-87
2023/10/05 05:42:25;;;;;;;5.72;2.00;;;;;;;13.04;59.87;100163.34;4457374;32;35018;-86
2023/10/05 05:44:52;;;;;;;6.15;2.33;;;;;;;13.06;60.14;100160.75;4461932;32;33926;-83
2023/10/05 05:47:20;;;;;;;6.53;2.45;;;;;;;13.09;60.28;100158.22;4460453;32;34212;-84
2023/10/05 05:49:48;;;;;;;5.32;2.03;;;;;;;13.30;59.86;100157.75;4467678;32;33627;-84
2023/10/05 05:52:17;;;;;;;5.25;1.98;;;;;;;13.36;59.37;100150.91;4467669;32;35039;-85
2023/10/05 05:54:47;;;;;;;4.78;2.17;;;;;;;13.30;59.85;100145.63;4464694;32;34076;-83
2023/10/05 05:57:19;;;;;;;5.53;2.10;;;;;;;13.36;59.85;100142.22;4461821;32;33432;-84
2023/10/05 05:59:47;;;;;;;5.62;1.80;;;;;;;13.38;59.89;100140.53;4462027;32;33640;-84
2023/10/05 06:02:14;;;;;;;5.43;2.22;;;;;;;13.30;60.22;100150.81;4452855;32;34633;-84
2023/10/05 06:04:42;;;;;;;4.70;2.17;;;;;;;13.48;59.60;100141.53;4460041;32;33792;-84
2023/10/05 06:07:13;;;;;;;7.90;2.20;;;;;;;13.56;59.49;100143.44;4455218;32;33619;-85
2023/10/05 06:09:43;;;;;;;5.43;2.05;;;;;;;13.63;59.19;100139.19;4461319;32;34022;-84
2023/10/05 06:12:12;;;;;;;5.37;2.20;;;;;;;13.64;59.12;100135.75;4454085;32;34905;-84
2023/10/05 06:14:40;;;;;;;5.62;1.83;;;;;;;13.47;59.89;100138.06;4467265;32;33964;-84
2023/10/05 06:17:08;;;;;;;5.00;2.33;;;;;;;13.50;60.05;100137.25;4467378;32;34421;-84
2023/10/05 06:19:37;;;;;;;5.53;1.83;;;;;;;13.59;59.99;100133.06;4453693;32;34097;-85
2023/10/05 06:22:08;;;;;;;4.80;1.98;;;;;;;13.57;59.93;100124.34;4452430;32;34041;-85
2023/10/05 06:24:38;;;;;;;5.82;2.40;;;;;;;13.71;59.82;100132.37;4440451;32;34578;-89
2023/10/05 06:27:06;;;;;;;6.05;2.20;;;;;;;13.75;59.55;100128.06;4452709;32;34366;-84
2023/10/05 06:29:35;;;;;;;7.05;2.60;;;;;;;13.78;59.51;100122.91;4452697;32;34398;-85
2023/10/05 06:32:08;;;;;;;8.20;2.25;;;;;;;13.94;59.02;100129.22;4463685;32;34004;-85
2023/10/05 06:34:37;;;;;;;10.48;2.55;;;;;;;14.11;58.46;100126.00;4465012;32;33896;-85
2023/10/05 06:37:04;;;;;;;6.07;2.15;;;;;;;14.17;58.49;100126.94;4454360;32;33217;-84
2023/10/05 06:39:32;;;;;;;5.97;1.73;;;;;;;14.02;58.92;100132.84;4466143;32;33667;-83
2023/10/05 06:42:00;;;;;;;7.75;2.37;;;;;;;14.06;59.00;100132.91;4465043;32;34678;-84
2023/10/05 06:44:28;;;;;;;4.93;1.90;;;;;;;14.15;59.13;100129.53;4451993;32;34570;-84
2023/10/05 06:46:56;;;;;;;6.32;2.85;;;;;;;14.31;57.16;100128.00;4444711;32;33023;-84
2023/10/05 06:49:24;;;;;;;8.27;3.08;;;;;;;14.43;57.39;100124.69;4453344;32;33770;-83
2023/10/05 06:51:51;;;;;;;9.15;4.20;;;;;;;14.16;57.87;100123.47;4465577;32;33800;-84
2023/10/05 06:54:19;;;;;;;7.55;2.85;;;;;;;14.45;58.12;100122.97;4464765;32;33972;-85
2023/10/05 06:56:49;;;;;;;8.10;3.60;;;;;;;14.61;58.03;100130.16;4453447;32;33561;-85
2023/10/05 06:59:20;;;;;;;12.32;3.95;;;;;;;14.60;58.32;100118.84;4455783;32;33914;-94
2023/10/05 07:01:49;;;;;;;9.68;3.72;;;;;;;14.65;58.34;100124.13;4466140;32;35057;-85
2023/10/05 07:04:20;;;;;;;8.63;3.12;;;;;;;14.76;58.34;100125.09;4463242;32;34069;-84
2023/10/05 07:06:50;;;;;;;8.60;3.40;;;;;;;14.82;58.44;100130.41;4455398;32;33764;-83
2023/10/05 07:09:17;;;;;;;8.18;3.60;;;;;;;14.86;58.57;100133.94;4467413;32;33454;-84
2023/10/05 07:11:45;;;;;;;7.10;3.55;;;;;;;14.93;58.59;100130.53;4467338;32;34218;-86
2023/10/05 07:14:13;;;;;;;9.15;3.40;;;;;;;15.09;58.62;100128.94;4467500;32;33975;-86
2023/10/05 07:16:41;;;;;;;9.15;3.72;;;;;;;15.25;58.51;100132.56;4467440;32;33645;-83
2023/10/05 07:19:11;;;;;;;7.95;3.60;;;;;;;15.28;58.84;100127.38;4467258;32;33803;-85
2023/10/05 07:21:39;;;;;;;8.18;3.55;;;;;;;15.27;58.98;100128.25;4467523;32;34989;-86
2023/10/05 07:24:07;;;;;;;9.40;3.28;;;;;;;15.26;58.72;100127.34;4467551;32;33831;-86
2023/10/05 07:26:34;;;;;;;9.10;3.25;;;;;;;15.34;57.47;100127.41;4466785;32;34451;-85
2023/10/05 07:29:04;;;;;;;7.00;2.78;;;;;;;15.29;55.29;100126.50;4466959;32;33555;-85
2023/10/05 07:31:50;;;;;;;4.60;1.80;;;;;;;15.41;56.00;100121.38;4467431;32;33950;-85
2023/10/05 07:34:18;;;;;;;5.93;2.20;;;;;;;15.57;54.52;100122.41;4467377;32;34509;-85
2023/10/05 07:36:45;;;;;;;8.68;2.30;;;;;;;15.68;54.37;100122.50;4467444;32;34396;-85
2023/10/05 07:39:14;;;;;;;7.47;2.67;;;;;;;15.86;54.66;100127.88;4467448;32;34786;-85
2023/10/05 07:41:44;;;;;;;6.87;2.40;;;;;;;16.05;53.73;100121.87;4456380;32;34137;-83
2023/10/05 07:44:11;;;;;;;8.25;2.55;;;;;;;16.30;48.55;100122.03;4453471;32;34354;-84
2023/10/05 07:46:39;;;;;;;5.18;1.92;;;;;;;16.40;46.95;100113.34;4457971;32;33867;-90
2023/10/05 07:49:08;;;;;;;8.07;2.83;;;;;;;16.60;47.25;100116.03;4451170;32;33944;-84
2023/10/05 07:51:36;;;;;;;5.82;2.20;;;;;;;16.36;48.68;100116.78;4459195;32;33977;-85
2023/10/05 07:54:03;;;;;;;4.75;1.90;;;;;;;16.58;46.05;100117.75;4459856;32;34901;-85
2023/10/05 07:56:32;;;;;;;6.40;2.00;;;;;;;16.89;45.73;100118.75;4458953;32;33546;-84
2023/10/05 07:59:00;;;;;;;7.12;2.75;;;;;;;16.87;45.89;100131.00;4459159;32;35541;-85
2023/10/05 08:01:28;;;;;;;5.70;2.10;;;;;;;17.13;44.75;100128.44;4456389;32;33781;-86
2023/10/05 08:03:56;;;;;;;7.28;2.42;;;;;;;17.35;43.37;100124.09;4452658;32;34558;-85
2023/10/05 08:06:25;;;;;;;6.32;2.03;;;;;;;17.65;44.07;100132.81;4452709;32;33328;-84
2023/10/05 08:08:53;;;;;;;6.28;2.60;;;;;;;17.76;45.11;100125.84;4454937;32;33972;-85
2023/10/05 08:11:21;;;;;;;5.50;1.92;;;;;;;18.19;43.86;100133.66;4458370;32;33868;-84
2023/10/05 08:13:48;;;;;;;10.70;2.83;;;;;;;17.95;43.71;100127.56;4460093;32;34317;-85
2023/10/05 08:16:16;;;;;;;6.60;2.12;;;;;;;18.21;43.52;100126.62;4461225;32;33262;-84
2023/10/05 08:18:44;;;;;;;8.05;2.70;;;;;;;18.05;45.97;100124.94;4448610;32;33996;-85
2023/10/05 08:21:11;;;;;;;7.72;2.55;;;;;;;18.53;44.04;100123.03;4457352;32;34150;-85
2023/10/05 08:23:39;;;;;;;6.15;2.10;;;;;;;18.75;43.05;100116.78;4460098;32;33999;-84
2023/10/05 08:26:08;;;;;;;6.35;2.47;;;;;;;18.75;43.40;100122.06;4449307;32;33307;-85
2023/10/05 08:28:37;;;;;;;6.97;2.58;;;;;;;18.93;42.83;100119.31;4448977;32;34702;-84
2023/10/05 08:31:07;;;;;;;6.72;2.10;;;;;;;18.88;42.63;100118.50;4459530;32;33841;-85
2023/10/05 08:33:35;;;;;;;5.78;2.17;;;;;;;19.05;41.90;100113.12;4459866;32;33961;-85
2023/10/05 08:36:06;;;;;;;5.62;2.25;;;;;;;19.06;41.56;100109.62;4447010;32;33053;-84
2023/10/05 08:38:34;;;;;;;7.20;2.00;;;;;;;19.06;41.33;100117.50;4458252;32;33807;-84
2023/10/05 08:41:07;;;;;;;6.95;2.58;;;;;;;19.36;40.20;100111.16;4438352;32;34669;-87
2023/10/05 08:43:38;;;;;;;8.15;2.20;;;;;;;19.24;41.04;100111.22;4452632;32;34961;-86
2023/10/05 08:46:12;;;;;;;7.68;2.67;;;;;;;19.42;41.60;100111.09;4455687;32;33201;-84
2023/10/05 08:48:41;;;;;;;7.47;2.60;;;;;;;19.54;41.11;100107.47;4455893;32;34709;-86
2023/10/05 08:51:12;;;;;;;7.87;1.98;;;;;;;19.54;40.29;100117.12;4459727;32;33888;-85
2023/10/05 08:53:54;;;;;;;5.50;2.20;;;;;;;19.80;42.60;100123.06;4445210;32;34643;-85
2023/10/05 08:56:22;;;;;;;8.68;2.40;;;;;;;19.91;40.16;100109.81;4454371;32;33362;-85
2023/10/05 08:58:52;;;;;;;13.50;2.40;;;;;;;19.92;41.65;100122.94;4454843;32;33931;-85
2023/10/05 09:01:25;;;;;;;11.75;2.72;;;;;;;20.21;40.47;100119.13;4457103;32;33931;-85
2023/10/05 09:03:54;;;;;;;8.52;2.37;;;;;;;20.44;38.85;100113.59;4454538;32;33473;-85
2023/10/05 09:06:24;;;;;;;8.07;2.85;;;;;;;20.17;40.28;100117.44;4441703;32;34926;-86
2023/10/05 09:08:53;;;;;;;6.25;2.25;;;;;;;19.93;41.11;100111.53;4456148;32;33797;-85
2023/10/05 09:11:32;;;;;;;9.07;2.78;;;;;;;19.99;40.95;100115.00;4457231;32;34169;-88
2023/10/05 09:14:23;;;;;;;8.52;2.40;;;;;;;20.10;39.52;100110.47;4446999;32;34338;-85
2023/10/05 09:17:04;;;;;;;10.50;3.35;;;;;;;19.89;40.12;100101.06;4438584;32;33480;-84
2023/10/05 09:19:33;;;;;;;8.95;3.80;;;;;;;20.46;38.71;100097.78;4436441;32;34451;-86
2023/10/05 09:24:29;;;;;;;10.32;3.40;;;;;;;20.63;40.07;100101.97;4450477;32;34811;-87
2023/10/05 09:26:58;;;;;;;8.15;3.40;;;;;;;20.58;38.74;100092.38;4453068;32;34173;-84
2023/10/05 09:29:28;;;;;;;9.00;3.58;;;;;;;20.29;36.88;100090.94;4451880;32;34082;-87
2023/10/05 09:31:56;;;;;;;5.90;2.80;;;;;;;20.21;37.46;100092.81;4465917;32;34210;-84
2023/10/05 09:34:44;;;;;;;5.75;2.10;;;;;;;20.93;35.38;100078.69;4465599;32;35018;-84
2023/10/05 09:37:13;;;;;;;5.03;1.90;;;;;;;20.87;35.76;100076.16;4465771;32;33963;-86
2023/10/05 09:39:43;;;;;;;5.75;1.70;;;;;;;20.92;36.93;100076.09;4465365;32;33719;-84
2023/10/05 09:42:14;;;;;;;7.82;2.37;;;;;;;21.22;32.37;100070.34;4465759;32;35076;-86
2023/10/05 09:44:50;;;;;;;6.00;1.55;;;;;;;20.46;35.79;100081.97;4465728;32;34260;-86
2023/10/05 09:47:25;;;;;;;5.75;1.95;;;;;;;20.24;35.91;100082.25;4465440;32;33531;-87
2023/10/05 09:49:55;;;;;;;6.53;1.60;;;;;;;20.58;36.86;100079.22;4452026;32;33732;-86
2023/10/05 09:52:36;;;;;;;5.30;1.70;;;;;;;20.78;36.22;100069.25;4453456;32;34020;-83
2023/10/05 09:55:06;;;;;;;6.68;2.10;;;;;;;21.00;34.05;100069.81;4455279;32;33964;-85
2023/10/05 09:57:41;;;;;;;6.93;1.80;;;;;;;20.87;35.41;100074.41;4467879;32;33649;-85
2023/10/05 10:03:01;;;;;;;5.55;2.20;;;;;;;21.20;36.47;100072.13;4455653;32;34218;-84
2023/10/05 10:05:43;;;;;;;4.53;1.92;;;;;;;21.68;34.81;100074.87;4452145;32;34699;-85
2023/10/05 10:08:13;;;;;;;5.97;1.90;;;;;;;21.55;34.76;100062.78;4438422;32;34804;-85
2023/10/05 10:11:00;;;;;;;6.20;1.95;;;;;;;21.52;35.89;100065.50;4438655;32;33715;-86
2023/10/05 10:13:34;;;;;;;5.60;1.70;;;;;;;21.26;35.38;100053.56;4459951;32;33696;-85
2023/10/05 10:16:03;;;;;;;6.03;1.90;;;;;;;21.66;35.06;100047.63;4454420;32;34181;-85
2023/10/05 10:18:36;;;;;;;5.68;1.83;;;;;;;21.84;35.38;100057.84;4467763;32;34399;-85
2023/10/05 10:21:12;;;;;;;7.12;2.03;;;;;;;20.86;36.09;100050.69;4467753;32;34342;-84
2023/10/05 10:23:49;;;;;;;4.80;1.90;;;;;;;20.96;35.42;100047.03;4454910;32;34267;-85
2023/10/05 10:26:17;;;;;;;4.82;1.85;;;;;;;21.15;35.94;100042.34;4453580;32;33979;-85
2023/10/05 10:31:57;;;;;;;3.87;1.62;;;;;;;20.79;35.07;100028.81;4467695;32;34740;-85
2023/10/05 10:34:42;;;;;;;4.62;1.67;;;;;;;20.77;35.07;100027.13;4441842;32;34803;-85
2023/10/05 10:37:10;;;;;;;7.72;1.70;;;;;;;20.97;35.08;100029.44;4439149;32;33978;-83
2023/10/05 10:39:38;;;;;;;5.15;1.60;;;;;;;20.95;35.36;100023.31;4459286;32;33869;-85
2023/10/05 10:42:12;;;;;;;5.32;1.75;;;;;;;21.53;34.17;100020.59;4467488;32;34908;-86
2023/10/05 10:45:15;;;;;;;6.70;1.85;;;;;;;21.58;33.54;100017.88;4467662;32;34620;-86
2023/10/05 10:47:39;;;;;;;4.37;1.58;;;;;;;21.78;35.72;100013.09;4465567;32;34693;-85
2023/10/05 10:50:11;;;;;;;5.40;1.50;;;;;;;21.46;35.28;100005.78;4467500;32;34034;-86
2023/10/05 10:52:39;;;;;;;4.60;1.65;;;;;;;21.18;34.92;100000.09;4467700;32;34077;-85
2023/10/05 10:55:14;;;;;;;8.50;1.55;;;;;;;21.52;35.27;100002.16;4453707;32;35703;-85
2023/10/05 10:57:44;;;;;;;5.75;1.52;;;;;;;21.31;35.62;99998.09;4467524;32;34782;-85
2023/10/05 11:03:15;;;;;;;4.35;1.45;;;;;;;21.82;34.35;99992.75;4448329;32;33502;-85
2023/10/05 11:05:51;;;;;;;4.25;1.60;;;;;;;22.16;33.01;99987.72;4467632;32;34264;-86
2023/10/05 11:08:21;;;;;;;7.95;1.50;;;;;;;21.90;32.96;99987.34;4467642;32;33432;-85
2023/10/05 11:11:06;;;;;;;4.53;1.90;;;;;;;22.38;32.44;99971.37;4467680;32;33440;-85
2023/10/05 11:13:39;;;;;;;6.70;1.60;;;;;;;22.12;33.01;99980.69;4454243;32;34535;-85
2023/10/05 11:16:09;;;;;;;4.60;1.48;;;;;;;22.14;34.09;99976.31;4467644;32;34817;-85
2023/10/05 11:18:58;;;;;;;5.03;1.60;;;;;;;22.39;31.87;99967.81;4467363;32;33458;-86
2023/10/05 11:21:26;;;;;;;4.95;1.30;;;;;;;22.24;33.46;99954.06;4454229;32;33524;-86
2023/10/05 11:23:58;;;;;;;4.60;1.52;;;;;;;22.22;33.29;99955.87;4453332;32;34020;-85
2023/10/05 11:29:20;;;;;;;4.00;1.48;;;;;;;22.20;33.28;99947.13;4456009;32;33251;-86
2023/10/05 11:31:52;;;;;;;3.92;1.45;;;;;;;21.66;34.75;99949.09;4467360;32;33494;-86
2023/10/05 11:34:42;;;;;;;5.20;1.50;;;;;;;21.86;36.37;99953.09;4467535;32;33373;-86
2023/10/05 11:37:32;;;;;;;5.82;1.27;;;;;;;22.01;34.26;99951.91;4455672;32;34658;-85
2023/10/05 11:40:01;;;;;;;4.82;1.60;;;;;;;22.36;33.89;99941.50;4466254;32;33644;-86
2023/10/05 11:42:34;;;;;;;4.87;1.50;;;;;;;22.11;34.12;99934.06;4467155;32;34221;-86
2023/10/05 11:45:12;;;;;;;8.52;1.77;;;;;;;21.89;34.69;99940.72;4467062;32;33620;-86
2023/10/05 11:47:46;;;;;;;7.10;1.80;;;;;;;22.11;33.89;99923.50;4467061;32;35020;-86
2023/10/05 11:50:24;;;;;;;7.72;1.90;;;;;;;22.33;35.06;99931.84;4467216;32;34586;-86
2023/10/05 11:52:52;;;;;;;3.83;1.40;;;;;;;22.65;34.85;99917.84;4467193;32;33812;-86
2023/10/05 11:55:20;;;;;;;6.87;2.03;;;;;;;22.70;33.32;99918.63;4467171;32;33855;-86
2023/10/05 11:57:48;;;;;;;4.97;1.67;;;;;;;22.55;35.04;99916.38;4467752;32;33402;-85
2023/10/05 12:00:16;;;;;;;5.10;1.60;;;;;;;22.57;34.27;99915.41;4467316;32;33730;-86
2023/10/05 12:02:45;;;;;;;5.90;1.70;;;;;;;22.67;33.63;99910.78;4466892;32;33343;-85
2023/10/05 12:05:13;;;;;;;5.75;1.87;;;;;;;22.60;33.12;99909.19;4453178;32;33834;-86
2023/10/05 12:07:45;;;;;;;8.18;1.60;;;;;;;22.60;34.23;99914.47;4467048;32;34172;-85
2023/10/05 12:10:13;;;;;;;4.75;1.40;;;;;;;22.55;33.51;99908.44;4466834;32;33987;-86
2023/10/05 12:12:41;;;;;;;5.37;1.45;;;;;;;22.53;33.15;99915.53;4466987;32;33396;-86
2023/10/05 12:15:13;;;;;;;4.78;1.60;;;;;;;23.05;32.30;99906.31;4467068;32;33877;-86
2023/10/05 12:17:41;;;;;;;6.05;1.75;;;;;;;22.89;34.01;99918.19;4466798;32;35244;-86
2023/10/05 12:20:12;;;;;;;7.72;1.60;;;;;;;22.54;33.46;99915.50;4467068;32;34783;-86
2023/10/05 12:22:41;;;;;;;5.47;1.55;;;;;;;22.87;33.41;99914.69;4453306;32;34150;-86